Pagina principală
Imagini satelitare Vremea 15-zileClimăMare Cicloane Trăsnet AeroporturiÎntrebări Noutăţi Despre
Meteo : Europa Africa America de Nord America de Sud Asia Australia-Oceania Alte
Limbi Contact

Bucureşti-Băneasa, România

Aurel Vlaicu

Latitudine: 44-30N, Longitudine: 026-08E, Altitudine: 90 m


METAR: LRBS 171300Z 05010KT 010V090 CAVOK 23/04 Q1018 NOSIG
short-TAF: invechit (10442 ore)
long-TAF: LRBS 171100Z 1712/1812 05012KT CAVOK

Oră: 16:32 (13:32 UTC)

observaţii meteorologice

Raportul a fost facut 32 minute în urmă, la 13:00 UTC  
Vânt 10 kt de la Nord-Est, variabil Nord si Est
Temperatură 23°C
Umiditatea 29%
Presiune 1018 hPa
Vizibilitate 10 km sau mai mult
Vizibilitatea, norii şi fenomenele meteo actuale mai bune decât valorile sau condiţiile stabilite

Unităţile de măsură

Prognoză

Raportul a fost facut 1 ora si 56 minute în urmă, la 11:36 UTC  
Prognoza valabil de 17la ora 12 UTC până 18la ora 12 UTC
Vânt 12 kt de la Nord-Est
Vizibilitate 10 km sau mai mult
Vizibilitatea, norii şi fenomenele meteo actuale mai bune decât valorile sau condiţiile stabilite
Informaţiile de pe acest site fac obiectul unei denegări de responsabilitate
Meteo : Europa Africa America de Nord America de Sud Asia Australia-Oceania Alte
Imagini satelitare Vremea 15-zileClimăMare Cicloane Trăsnet AeroporturiÎntrebări Limbi Contact Noutăţi Despre